createdAt,value
2023-04-09T00:00:39.086Z,12.70
2023-04-09T00:03:05.750Z,12.55
2023-04-09T00:05:32.383Z,14.68
2023-04-09T00:07:58.904Z,12.43
2023-04-09T00:10:25.376Z,12.52
2023-04-09T00:12:51.881Z,13.57
2023-04-09T00:15:30.021Z,13.60
2023-04-09T00:17:58.110Z,15.82
2023-04-09T00:20:24.598Z,13.75
2023-04-09T00:22:51.849Z,14.75
2023-04-09T00:25:18.792Z,16.40
2023-04-09T00:27:45.427Z,15.13
2023-04-09T00:30:12.016Z,13.45
2023-04-09T00:32:38.471Z,12.82
2023-04-09T00:35:05.466Z,13.88
2023-04-09T00:37:31.982Z,15.32
2023-04-09T00:39:58.427Z,15.35
2023-04-09T00:42:24.915Z,13.00
2023-04-09T00:44:51.383Z,13.52
2023-04-09T00:47:18.423Z,12.70
2023-04-09T00:49:45.004Z,13.98
2023-04-09T00:52:11.479Z,13.50
2023-04-09T00:54:38.015Z,15.30
2023-04-09T00:57:05.064Z,12.32
2023-04-09T00:59:31.563Z,15.02
2023-04-09T01:01:58.125Z,14.18
2023-04-09T01:04:24.803Z,14.00
2023-04-09T01:06:53.713Z,11.70
2023-04-09T01:09:42.856Z,12.77
2023-04-09T01:12:14.391Z,14.90
2023-04-09T01:14:50.987Z,12.35
2023-04-09T01:17:23.499Z,13.43
2023-04-09T01:20:04.924Z,13.80
2023-04-09T01:22:37.027Z,13.77
2023-04-09T01:25:10.069Z,13.88
2023-04-09T01:27:49.498Z,13.07
2023-04-09T01:30:17.953Z,14.02
2023-04-09T01:32:44.972Z,14.60
2023-04-09T01:35:11.500Z,13.13
2023-04-09T01:37:38.402Z,12.48
2023-04-09T01:40:05.634Z,13.70
2023-04-09T01:42:32.809Z,14.18
2023-04-09T01:44:59.500Z,11.80
2023-04-09T01:47:27.419Z,12.27
2023-04-09T01:49:54.213Z,13.50
2023-04-09T01:52:20.715Z,12.93
2023-04-09T01:54:47.176Z,14.38
2023-04-09T01:57:13.681Z,12.88
2023-04-09T01:59:40.364Z,12.52
2023-04-09T02:02:11.393Z,11.05
2023-04-09T02:04:48.270Z,11.93
2023-04-09T02:07:38.624Z,11.20
2023-04-09T02:10:07.039Z,12.52
2023-04-09T02:12:36.669Z,11.70
2023-04-09T02:15:03.547Z,12.90
2023-04-09T02:17:30.150Z,11.20
2023-04-09T02:19:57.150Z,12.75
2023-04-09T02:22:23.692Z,13.63
2023-04-09T02:24:50.155Z,12.38
2023-04-09T02:27:16.683Z,14.13
2023-04-09T02:29:43.285Z,12.57
2023-04-09T02:32:09.814Z,13.05
2023-04-09T02:34:36.259Z,13.90
2023-04-09T02:37:02.761Z,12.45
2023-04-09T02:39:29.201Z,14.23
2023-04-09T02:41:56.270Z,14.02
2023-04-09T02:44:22.729Z,13.70
2023-04-09T02:46:51.449Z,11.88
2023-04-09T02:49:18.130Z,14.77
2023-04-09T02:51:44.589Z,11.73
2023-04-09T02:54:11.100Z,11.80
2023-04-09T02:56:37.682Z,12.93
2023-04-09T02:59:04.150Z,15.57
2023-04-09T03:01:30.731Z,11.88
2023-04-09T03:03:57.391Z,11.77
2023-04-09T03:06:23.990Z,15.27
2023-04-09T03:08:50.822Z,18.20
2023-04-09T03:11:17.501Z,15.95
2023-04-09T03:13:43.951Z,13.63
2023-04-09T03:16:10.612Z,16.30
2023-04-09T03:18:37.291Z,15.38
2023-04-09T03:21:07.957Z,14.02
2023-04-09T03:23:35.182Z,17.40
2023-04-09T03:26:05.578Z,13.27
2023-04-09T03:28:32.089Z,15.85
2023-04-09T03:30:58.633Z,15.90
2023-04-09T03:33:25.754Z,14.65
2023-04-09T03:35:52.398Z,14.43
2023-04-09T03:38:19.562Z,13.68
2023-04-09T03:40:46.064Z,14.40
2023-04-09T03:43:12.439Z,14.93
2023-04-09T03:45:38.868Z,14.45
2023-04-09T03:48:05.479Z,15.55
2023-04-09T03:50:31.918Z,14.77
2023-04-09T03:52:58.387Z,16.27
2023-04-09T03:55:25.229Z,15.95
2023-04-09T03:57:51.661Z,17.10
2023-04-09T04:00:18.094Z,18.02
2023-04-09T04:02:44.734Z,16.00
2023-04-09T04:05:12.124Z,17.52
2023-04-09T04:07:38.631Z,16.10
2023-04-09T04:10:08.269Z,17.67
2023-04-09T04:12:34.683Z,15.75
2023-04-09T04:15:01.930Z,14.45
2023-04-09T04:17:28.342Z,13.63
2023-04-09T04:19:54.780Z,17.77
2023-04-09T04:22:21.259Z,11.60
2023-04-09T04:24:47.642Z,13.07
2023-04-09T04:27:14.082Z,12.57
2023-04-09T04:29:40.586Z,12.88
2023-04-09T04:32:07.109Z,12.90
2023-04-09T04:34:33.572Z,14.90
2023-04-09T04:37:00.195Z,11.32
2023-04-09T04:39:26.693Z,12.98
2023-04-09T04:41:53.097Z,12.77
2023-04-09T04:44:19.484Z,14.02
2023-04-09T04:46:45.949Z,13.50
2023-04-09T04:49:12.427Z,12.45
2023-04-09T04:51:38.873Z,13.15
2023-04-09T04:54:05.285Z,13.05
2023-04-09T04:56:31.805Z,14.73
2023-04-09T04:58:58.222Z,13.35
2023-04-09T05:01:24.676Z,13.88
2023-04-09T05:03:51.252Z,12.68
2023-04-09T05:06:17.814Z,12.55
2023-04-09T05:08:44.212Z,15.18
2023-04-09T05:11:15.014Z,13.93
2023-04-09T05:13:41.446Z,13.02
2023-04-09T05:16:08.117Z,15.23
2023-04-09T05:18:34.543Z,14.88
2023-04-09T05:21:01.112Z,13.20
2023-04-09T05:23:27.516Z,13.70
2023-04-09T05:25:53.990Z,12.63
2023-04-09T05:28:20.550Z,14.30
2023-04-09T05:30:47.678Z,13.30
2023-04-09T05:33:14.163Z,14.40
2023-04-09T05:35:40.888Z,17.52
2023-04-09T05:38:07.338Z,15.02
2023-04-09T05:40:35.264Z,12.80
2023-04-09T05:43:01.854Z,13.45
2023-04-09T05:45:28.617Z,14.23
2023-04-09T05:47:55.107Z,14.20
2023-04-09T05:50:21.677Z,14.13
2023-04-09T05:52:48.164Z,12.43
2023-04-09T05:55:14.768Z,14.07
2023-04-09T05:57:41.747Z,13.30
2023-04-09T06:00:08.645Z,13.57
2023-04-09T06:02:35.192Z,13.65
2023-04-09T06:05:01.723Z,13.90
2023-04-09T06:07:28.160Z,13.15
2023-04-09T06:09:55.530Z,15.15
2023-04-09T06:12:22.067Z,14.55
2023-04-09T06:14:48.994Z,13.77
2023-04-09T06:17:15.421Z,14.75
2023-04-09T06:19:41.932Z,15.00
2023-04-09T06:22:11.483Z,15.00
2023-04-09T06:24:37.941Z,13.30
2023-04-09T06:27:04.478Z,15.93
2023-04-09T06:29:31.170Z,15.80
2023-04-09T06:31:57.793Z,15.27
2023-04-09T06:34:24.243Z,15.23
2023-04-09T06:36:50.770Z,16.27
2023-04-09T06:39:17.240Z,14.38
2023-04-09T06:41:43.661Z,13.45
2023-04-09T06:44:10.089Z,13.23
2023-04-09T06:46:36.625Z,15.23
2023-04-09T06:49:03.096Z,13.52
2023-04-09T06:51:29.528Z,14.18
2023-04-09T06:53:56.176Z,14.65
2023-04-09T06:56:22.725Z,13.95
2023-04-09T06:58:49.285Z,12.68
2023-04-09T07:01:17.381Z,13.25
2023-04-09T07:03:43.930Z,16.02
2023-04-09T07:06:10.635Z,13.55
2023-04-09T07:08:37.136Z,13.13
2023-04-09T07:11:03.600Z,14.80
2023-04-09T07:13:31.362Z,14.23
2023-04-09T07:15:57.813Z,14.10
2023-04-09T07:18:24.320Z,15.35
2023-04-09T07:20:52.175Z,15.05
2023-04-09T07:23:18.623Z,14.70
2023-04-09T07:25:45.248Z,13.70
2023-04-09T07:28:11.727Z,13.32
2023-04-09T07:30:40.284Z,13.27
2023-04-09T07:33:06.894Z,13.52
2023-04-09T07:35:34.901Z,13.43
2023-04-09T07:38:01.396Z,13.07
2023-04-09T07:40:27.898Z,13.52
2023-04-09T07:42:55.688Z,13.57
2023-04-09T07:45:22.115Z,13.55
2023-04-09T07:47:48.673Z,14.73
2023-04-09T07:50:15.884Z,13.95
2023-04-09T07:52:42.677Z,14.27
2023-04-09T07:55:09.337Z,15.23
2023-04-09T07:57:36.790Z,14.75
2023-04-09T08:00:03.784Z,14.45
2023-04-09T08:02:31.051Z,14.65
2023-04-09T08:04:58.092Z,14.23
2023-04-09T08:07:24.649Z,15.02
2023-04-09T08:09:51.358Z,14.30
2023-04-09T08:12:17.834Z,14.40
2023-04-09T08:14:44.272Z,14.35
2023-04-09T08:17:10.818Z,16.10
2023-04-09T08:19:39.767Z,16.67
2023-04-09T08:22:07.587Z,15.95
2023-04-09T08:24:34.511Z,15.07
2023-04-09T08:27:01.979Z,14.18
2023-04-09T08:29:28.445Z,14.27
2023-04-09T08:31:55.032Z,13.90
2023-04-09T08:34:22.180Z,14.90
2023-04-09T08:36:49.879Z,15.50
2023-04-09T08:39:20.082Z,14.27
2023-04-09T08:41:47.611Z,14.73
2023-04-09T08:44:14.271Z,14.90
2023-04-09T08:46:41.419Z,13.60
2023-04-09T08:49:09.085Z,13.95
2023-04-09T08:51:35.548Z,15.25
2023-04-09T08:54:04.493Z,14.35
2023-04-09T08:56:31.849Z,14.13
2023-04-09T08:58:58.569Z,12.00
2023-04-09T09:01:29.445Z,15.05
2023-04-09T09:04:07.025Z,13.98
2023-04-09T09:06:38.295Z,14.73
2023-04-09T09:09:15.992Z,13.15
2023-04-09T09:11:44.582Z,15.27
2023-04-09T09:14:16.240Z,12.65
2023-04-09T09:16:45.080Z,15.20
2023-04-09T09:19:26.866Z,16.17
2023-04-09T09:21:57.541Z,11.88
2023-04-09T09:24:23.975Z,13.45
2023-04-09T09:26:50.604Z,13.82
2023-04-09T09:29:17.475Z,12.32
2023-04-09T09:31:51.561Z,13.77
2023-04-09T09:34:19.521Z,13.15
2023-04-09T09:36:46.645Z,13.88
2023-04-09T09:39:14.136Z,14.43
2023-04-09T09:41:41.802Z,13.27
2023-04-09T09:44:10.311Z,12.50
2023-04-09T09:46:42.380Z,13.27
2023-04-09T09:49:09.590Z,13.85
2023-04-09T09:51:37.617Z,13.07
2023-04-09T09:54:04.152Z,13.13
2023-04-09T09:56:32.815Z,12.68
2023-04-09T09:59:07.936Z,13.20
2023-04-09T10:01:37.834Z,14.60
2023-04-09T10:04:06.330Z,13.25
2023-04-09T10:06:34.543Z,12.98
2023-04-09T10:09:04.457Z,12.93
2023-04-09T10:11:36.680Z,13.27
2023-04-09T10:14:03.784Z,13.57
2023-04-09T10:16:31.229Z,13.57
2023-04-09T10:18:59.118Z,13.05
2023-04-09T10:21:37.073Z,13.07
2023-04-09T10:24:06.088Z,13.00
2023-04-09T10:26:34.186Z,13.23
2023-04-09T10:29:08.695Z,11.90
2023-04-09T10:31:54.966Z,13.05
2023-04-09T10:34:23.558Z,13.50
2023-04-09T10:36:53.466Z,12.30
2023-04-09T10:39:20.007Z,12.10
2023-04-09T10:41:47.205Z,13.00
2023-04-09T10:44:21.536Z,11.82
2023-04-09T10:46:48.176Z,12.68
2023-04-09T10:49:19.604Z,12.50
2023-04-09T10:51:53.028Z,11.25
2023-04-09T10:54:34.539Z,11.82
2023-04-09T10:57:11.274Z,11.90
2023-04-09T10:59:41.027Z,10.82
2023-04-09T11:02:09.139Z,11.13
2023-04-09T11:04:41.775Z,11.65
2023-04-09T11:07:08.864Z,10.38
2023-04-09T11:09:38.083Z,10.73
2023-04-09T11:12:04.674Z,10.38
2023-04-09T11:14:31.733Z,10.30
2023-04-09T11:16:58.263Z,11.77
2023-04-09T11:19:24.787Z,10.27
2023-04-09T11:21:51.269Z,10.00
2023-04-09T11:24:18.986Z,9.25
2023-04-09T11:26:45.954Z,8.88
2023-04-09T11:29:12.946Z,9.55
2023-04-09T11:31:39.458Z,9.80
2023-04-09T11:34:05.969Z,10.27
2023-04-09T11:36:35.781Z,9.73
2023-04-09T11:39:02.567Z,9.45
2023-04-09T11:41:38.777Z,10.25
2023-04-09T11:44:06.024Z,10.20
2023-04-09T11:46:33.176Z,9.88
2023-04-09T11:48:59.883Z,9.68
2023-04-09T11:51:33.083Z,9.60
2023-04-09T11:54:03.550Z,8.60
2023-04-09T11:56:31.183Z,9.05
2023-04-09T11:58:57.854Z,8.93
2023-04-09T12:01:24.589Z,9.15
2023-04-09T12:03:55.286Z,8.32
2023-04-09T12:06:22.983Z,9.07
2023-04-09T12:09:08.731Z,8.70
2023-04-09T12:11:37.183Z,9.13
2023-04-09T12:14:04.934Z,8.98
2023-04-09T12:16:32.731Z,8.13
2023-04-09T12:19:03.546Z,9.05
2023-04-09T12:21:54.568Z,9.43
2023-04-09T12:24:23.148Z,8.10
2023-04-09T12:26:50.365Z,10.10
2023-04-09T12:29:19.342Z,8.70
2023-04-09T12:31:46.111Z,8.75
2023-04-09T12:34:13.339Z,8.60
2023-04-09T12:36:41.559Z,8.20
2023-04-09T12:39:09.766Z,8.18
2023-04-09T12:41:36.499Z,8.55
2023-04-09T12:44:03.140Z,8.35
2023-04-09T12:46:29.740Z,9.15
2023-04-09T12:48:56.627Z,7.78
2023-04-09T12:51:23.746Z,7.35
2023-04-09T12:53:50.432Z,8.60
2023-04-09T12:56:17.041Z,7.97
2023-04-09T12:58:43.665Z,8.73
2023-04-09T13:01:10.294Z,8.52
2023-04-09T13:03:37.095Z,7.70
2023-04-09T13:06:04.153Z,7.28
2023-04-09T13:08:31.126Z,7.47
2023-04-09T13:10:57.806Z,7.22
2023-04-09T13:13:24.983Z,7.85
2023-04-09T13:15:52.141Z,7.40
2023-04-09T13:18:18.574Z,7.25
2023-04-09T13:20:45.223Z,7.43
2023-04-09T13:23:11.795Z,7.82
2023-04-09T13:25:38.283Z,7.55
2023-04-09T13:28:04.770Z,7.15
2023-04-09T13:30:31.232Z,7.00
2023-04-09T13:32:57.735Z,6.35
2023-04-09T13:35:24.235Z,7.10
2023-04-09T13:37:50.882Z,8.35
2023-04-09T13:40:17.745Z,7.10
2023-04-09T13:42:44.251Z,10.30
2023-04-09T13:45:11.168Z,7.28
2023-04-09T13:47:37.905Z,7.57
2023-04-09T13:50:04.928Z,7.38
2023-04-09T13:52:32.160Z,7.38
2023-04-09T13:54:58.655Z,6.68
2023-04-09T13:57:25.107Z,7.03
2023-04-09T13:59:51.639Z,7.47
2023-04-09T14:02:18.705Z,6.65
2023-04-09T14:04:45.384Z,6.22
2023-04-09T14:07:12.055Z,7.80
2023-04-09T14:09:38.508Z,7.22
2023-04-09T14:12:05.420Z,7.65
2023-04-09T14:14:31.905Z,7.03
2023-04-09T14:16:58.313Z,7.68
2023-04-09T14:19:24.771Z,6.10
2023-04-09T14:21:53.231Z,7.43
2023-04-09T14:24:22.883Z,6.57
2023-04-09T14:26:51.462Z,6.47
2023-04-09T14:29:17.953Z,6.13
2023-04-09T14:31:44.430Z,7.43
2023-04-09T14:34:11.096Z,7.15
2023-04-09T14:36:37.535Z,6.00
2023-04-09T14:39:03.991Z,6.53
2023-04-09T14:41:30.655Z,7.50
2023-04-09T14:43:57.080Z,6.03
2023-04-09T14:46:23.578Z,5.97
2023-04-09T14:48:50.384Z,5.43
2023-04-09T14:51:17.359Z,6.00
2023-04-09T14:53:43.771Z,4.93
2023-04-09T14:56:10.218Z,5.57
2023-04-09T14:58:36.664Z,5.78
2023-04-09T15:01:04.217Z,6.70
2023-04-09T15:03:30.884Z,6.45
2023-04-09T15:05:59.157Z,6.20
2023-04-09T15:08:25.621Z,6.43
2023-04-09T15:10:52.066Z,5.45
2023-04-09T15:13:18.537Z,5.78
2023-04-09T15:15:45.045Z,5.28
2023-04-09T15:18:11.547Z,5.72
2023-04-09T15:20:38.942Z,6.07
2023-04-09T15:23:05.518Z,6.20
2023-04-09T15:25:32.731Z,7.22
2023-04-09T15:27:59.241Z,7.05
2023-04-09T15:30:26.474Z,7.22
2023-04-09T15:32:53.074Z,7.57
2023-04-09T15:35:24.967Z,6.93
2023-04-09T15:37:51.778Z,7.05
2023-04-09T15:40:18.694Z,6.93
2023-04-09T15:42:45.297Z,6.68
2023-04-09T15:45:12.980Z,7.40
2023-04-09T15:47:39.495Z,7.57
2023-04-09T15:50:06.726Z,7.43
2023-04-09T15:52:33.418Z,7.07
2023-04-09T15:54:59.940Z,7.30
2023-04-09T15:57:26.434Z,7.45
2023-04-09T15:59:52.916Z,7.18
2023-04-09T16:02:19.742Z,7.75
2023-04-09T16:04:46.303Z,7.45
2023-04-09T16:07:16.059Z,6.85
2023-04-09T16:09:42.784Z,7.63
2023-04-09T16:12:09.387Z,7.43
2023-04-09T16:14:35.868Z,8.30
2023-04-09T16:17:02.436Z,7.57
2023-04-09T16:19:29.023Z,6.97
2023-04-09T16:21:55.690Z,7.10
2023-04-09T16:24:22.113Z,6.90
2023-04-09T16:26:49.174Z,7.45
2023-04-09T16:29:17.711Z,7.22
2023-04-09T16:31:44.391Z,7.45
2023-04-09T16:34:10.946Z,7.18
2023-04-09T16:36:37.465Z,6.95
2023-04-09T16:39:04.677Z,7.22
2023-04-09T16:41:31.430Z,6.60
2023-04-09T16:43:57.882Z,5.90
2023-04-09T16:46:24.436Z,7.13
2023-04-09T16:48:51.128Z,5.93
2023-04-09T16:51:17.789Z,6.72
2023-04-09T16:53:44.285Z,6.88
2023-04-09T16:56:10.798Z,6.43
2023-04-09T16:58:37.801Z,6.90
2023-04-09T17:01:04.490Z,8.38
2023-04-09T17:03:31.182Z,7.90
2023-04-09T17:05:57.839Z,6.75
2023-04-09T17:08:24.525Z,7.60
2023-04-09T17:10:52.006Z,5.55
2023-04-09T17:13:18.493Z,7.78
2023-04-09T17:15:44.956Z,6.72
2023-04-09T17:18:11.498Z,7.30
2023-04-09T17:20:37.978Z,7.75
2023-04-09T17:23:04.542Z,6.03
2023-04-09T17:25:30.980Z,6.32
2023-04-09T17:27:57.853Z,7.32
2023-04-09T17:30:24.364Z,6.78
2023-04-09T17:32:51.204Z,7.68
2023-04-09T17:35:17.806Z,7.03
2023-04-09T17:37:45.116Z,8.23
2023-04-09T17:40:14.292Z,8.30
2023-04-09T17:42:40.930Z,8.05
2023-04-09T17:45:09.049Z,6.90
2023-04-09T17:47:35.546Z,7.97
2023-04-09T17:50:02.150Z,9.35
2023-04-09T17:52:29.483Z,8.55
2023-04-09T17:54:56.427Z,7.95
2023-04-09T17:57:22.924Z,9.40
2023-04-09T17:59:49.381Z,9.32
2023-04-09T18:02:16.067Z,9.25
2023-04-09T18:04:43.031Z,9.07
2023-04-09T18:07:09.986Z,8.77
2023-04-09T18:09:39.039Z,9.15
2023-04-09T18:12:06.179Z,9.68
2023-04-09T18:14:33.852Z,9.48
2023-04-09T18:17:01.121Z,9.95
2023-04-09T18:19:28.065Z,10.73
2023-04-09T18:21:54.553Z,9.55
2023-04-09T18:24:21.009Z,10.18
2023-04-09T18:26:47.568Z,11.73
2023-04-09T18:29:14.034Z,10.75
2023-04-09T18:31:40.586Z,10.93
2023-04-09T18:34:07.123Z,11.05
2023-04-09T18:36:33.672Z,9.98
2023-04-09T18:39:00.197Z,10.48
2023-04-09T18:41:27.374Z,11.88
2023-04-09T18:43:54.429Z,28.60
2023-04-09T18:46:21.028Z,38.13
2023-04-09T18:48:47.519Z,33.03
2023-04-09T18:51:14.508Z,21.10
2023-04-09T18:53:41.722Z,15.32
2023-04-09T18:56:08.292Z,17.38
2023-04-09T18:58:34.833Z,13.15
2023-04-09T19:01:09.220Z,13.02
2023-04-09T19:03:35.890Z,9.63
2023-04-09T19:06:02.956Z,12.63
2023-04-09T19:08:38.355Z,13.05
2023-04-09T19:11:06.221Z,16.02
2023-04-09T19:13:32.647Z,14.75
2023-04-09T19:15:59.221Z,15.48
2023-04-09T19:18:26.659Z,13.70
2023-04-09T19:20:53.342Z,13.00
2023-04-09T19:23:20.293Z,13.70
2023-04-09T19:25:52.016Z,15.07
2023-04-09T19:28:18.676Z,15.70
2023-04-09T19:30:45.244Z,16.65
2023-04-09T19:33:11.816Z,15.32
2023-04-09T19:35:40.647Z,14.07
2023-04-09T19:38:08.032Z,13.10
2023-04-09T19:40:34.806Z,15.90
2023-04-09T19:43:01.293Z,14.77
2023-04-09T19:45:28.086Z,11.60
2023-04-09T19:47:55.947Z,12.95
2023-04-09T19:50:22.772Z,14.30
2023-04-09T19:52:49.258Z,13.68
2023-04-09T19:55:15.743Z,13.43
2023-04-09T19:57:43.673Z,13.60
2023-04-09T20:00:10.724Z,14.90
2023-04-09T20:02:39.454Z,12.23
2023-04-09T20:05:06.416Z,15.07
2023-04-09T20:07:32.863Z,16.35
2023-04-09T20:09:59.548Z,16.02
2023-04-09T20:12:29.328Z,15.00
2023-04-09T20:14:57.246Z,16.13
2023-04-09T20:17:24.065Z,15.50
2023-04-09T20:19:50.879Z,16.33
2023-04-09T20:22:17.370Z,17.17
2023-04-09T20:24:43.852Z,16.95
2023-04-09T20:27:10.369Z,18.38
2023-04-09T20:29:36.881Z,16.92
2023-04-09T20:32:03.441Z,18.63
2023-04-09T20:34:30.570Z,17.42
2023-04-09T20:36:57.579Z,18.52
2023-04-09T20:39:26.671Z,18.13
2023-04-09T20:41:53.881Z,18.50
2023-04-09T20:44:20.305Z,18.27
2023-04-09T20:46:46.736Z,17.70
2023-04-09T20:49:13.222Z,17.92
2023-04-09T20:51:39.892Z,18.20
2023-04-09T20:54:06.714Z,17.02
2023-04-09T20:56:33.259Z,17.67
2023-04-09T20:58:59.822Z,17.23
2023-04-09T21:01:28.927Z,16.42
2023-04-09T21:03:55.920Z,16.70
2023-04-09T21:06:22.463Z,16.60
2023-04-09T21:08:48.970Z,16.52
2023-04-09T21:11:15.447Z,15.30
2023-04-09T21:13:54.090Z,15.68
2023-04-09T21:16:21.390Z,18.02
2023-04-09T21:18:48.828Z,16.27
2023-04-09T21:21:15.525Z,16.27
2023-04-09T21:23:41.948Z,14.57
2023-04-09T21:26:09.040Z,15.23
2023-04-09T21:28:35.676Z,14.73
2023-04-09T21:31:02.403Z,13.82
2023-04-09T21:33:30.136Z,14.27
2023-04-09T21:35:57.115Z,13.90
2023-04-09T21:38:23.645Z,14.05
2023-04-09T21:40:50.092Z,14.07
2023-04-09T21:43:16.615Z,14.93
2023-04-09T21:45:43.162Z,13.60
2023-04-09T21:48:09.693Z,14.20
2023-04-09T21:50:36.379Z,14.43
2023-04-09T21:53:03.273Z,14.60
2023-04-09T21:55:29.947Z,14.50
2023-04-09T21:57:56.608Z,15.80
2023-04-09T22:00:23.194Z,15.85
2023-04-09T22:02:49.854Z,15.15
2023-04-09T22:05:16.449Z,15.55
2023-04-09T22:07:42.936Z,15.48
2023-04-09T22:10:09.802Z,18.25
2023-04-09T22:12:37.226Z,17.83
2023-04-09T22:15:05.074Z,18.63
2023-04-09T22:17:31.537Z,22.42
2023-04-09T22:19:58.561Z,26.58
2023-04-09T22:22:24.998Z,26.70
2023-04-09T22:24:51.506Z,23.65
2023-04-09T22:27:17.971Z,24.15
2023-04-09T22:29:44.486Z,22.25
2023-04-09T22:32:11.405Z,20.52
2023-04-09T22:34:37.887Z,20.48
2023-04-09T22:37:04.319Z,19.70
2023-04-09T22:39:31.075Z,18.00
2023-04-09T22:41:58.383Z,20.35
2023-04-09T22:44:25.101Z,20.10
2023-04-09T22:46:51.579Z,21.63
2023-04-09T22:49:18.140Z,21.90
2023-04-09T22:51:44.656Z,18.95
2023-04-09T22:54:11.168Z,19.80
2023-04-09T22:56:37.755Z,18.08
2023-04-09T22:59:04.219Z,19.85
2023-04-09T23:01:31.483Z,20.00
2023-04-09T23:03:58.096Z,20.98
2023-04-09T23:06:25.264Z,20.55
2023-04-09T23:08:51.870Z,18.15
2023-04-09T23:11:18.455Z,16.25
2023-04-09T23:13:45.312Z,16.60
2023-04-09T23:16:11.840Z,17.40
2023-04-09T23:18:38.509Z,17.83
2023-04-09T23:21:08.815Z,16.98
2023-04-09T23:23:36.042Z,17.42
2023-04-09T23:26:02.991Z,16.08
2023-04-09T23:28:29.441Z,17.30
2023-04-09T23:30:56.751Z,17.33
2023-04-09T23:33:23.714Z,17.20
2023-04-09T23:35:50.461Z,20.48
2023-04-09T23:38:16.963Z,19.15
2023-04-09T23:40:43.466Z,19.70
2023-04-09T23:43:09.963Z,19.67
2023-04-09T23:45:36.902Z,20.05
2023-04-09T23:48:04.858Z,19.42
2023-04-09T23:50:31.505Z,19.05
2023-04-09T23:53:00.884Z,21.45
2023-04-09T23:55:27.811Z,22.88
2023-04-09T23:57:54.343Z,20.40
